Time;durP1;ratioP1;P1;durP2;ratioP2;P2;SDS_P1;SDS_P2;PMS_P1;PMS_P2;Temp;Humidity;BMP_temperature;BMP_pressure;BME280_temperature;BME280_humidity;BME280_pressure;Samples;Min_cycle;Max_cycle;Signal;HPM_P1;HPM_P2
2023/12/19 00:00:09;;;;;;;;;;;;;;;1.50;100.00;101270.63;5062116;28;20044;-79
2023/12/19 00:02:34;;;;;;;32.50;18.93;;;;;;;1.37;100.00;101262.94;5070908;28;20005;-78
2023/12/19 00:05:00;;;;;;;34.90;19.40;;;;;;;1.19;100.00;101208.34;5052775;28;20087;-76
2023/12/19 00:07:28;;;;;;;34.75;21.40;;;;;;;1.53;100.00;101255.44;5069358;28;20393;-82
2023/12/19 00:09:54;;;;;;;35.75;20.38;;;;;;;1.55;100.00;101258.75;5054266;28;20032;-77
2023/12/19 00:12:22;;;;;;;38.63;21.10;;;;;;;1.57;100.00;101261.25;5070713;28;20013;-77
2023/12/19 00:14:47;;;;;;;33.83;19.70;;;;;;;1.44;100.00;101229.09;5070771;28;20020;-77
2023/12/19 00:17:12;;;;;;;37.03;20.40;;;;;;;1.47;100.00;101213.91;5070654;28;20025;-77
2023/12/19 00:19:38;;;;;;;34.05;19.83;;;;;;;1.59;100.00;101241.75;5070580;28;20029;-79
2023/12/19 00:22:03;;;;;;;31.95;18.52;;;;;;;1.58;100.00;101239.25;5070576;28;20112;-78
2023/12/19 00:24:29;;;;;;;30.45;18.27;;;;;;;1.63;100.00;101259.88;5052649;28;20477;-77
2023/12/19 00:26:54;;;;;;;36.45;20.70;;;;;;;1.57;100.00;101267.34;5053043;28;20111;-76
2023/12/19 00:29:20;;;;;;;36.50;20.60;;;;;;;1.58;100.00;101247.16;5053966;28;20413;-78
2023/12/19 00:31:45;;;;;;;35.92;19.23;;;;;;;1.52;100.00;101226.63;5032663;28;20079;-78
2023/12/19 00:34:10;;;;;;;34.60;18.70;;;;;;;1.52;100.00;101248.50;5050572;28;20021;-77
2023/12/19 00:36:36;;;;;;;34.03;19.20;;;;;;;1.43;100.00;101223.00;5050881;28;20021;-77
2023/12/19 00:39:04;;;;;;;30.58;17.48;;;;;;;1.50;100.00;101234.66;5050742;28;20037;-79
2023/12/19 00:41:29;;;;;;;29.77;18.85;;;;;;;1.68;100.00;101273.50;5050776;28;20029;-77
2023/12/19 00:43:55;;;;;;;28.02;16.33;;;;;;;1.68;100.00;101281.38;5051042;28;20475;-77
2023/12/19 00:46:21;;;;;;;26.52;15.85;;;;;;;1.43;100.00;101219.53;5033375;28;20606;-76
2023/12/19 00:48:46;;;;;;;25.42;16.25;;;;;;;1.55;100.00;101256.13;5051109;28;20091;-77
2023/12/19 00:51:12;;;;;;;26.90;16.58;;;;;;;1.60;100.00;101266.25;5062378;28;20059;-76
2023/12/19 00:53:38;;;;;;;26.83;15.90;;;;;;;1.55;100.00;101243.00;5071381;28;20029;-77
2023/12/19 00:56:11;;;;;;;29.20;17.48;;;;;;;1.57;100.00;101262.09;5070633;28;20078;-78
2023/12/19 00:58:37;;;;;;;28.45;16.92;;;;;;;1.39;100.00;101218.97;5064373;28;20040;-76
2023/12/19 01:01:06;;;;;;;27.92;17.02;;;;;;;1.56;100.00;101234.13;5066949;28;20089;-79
2023/12/19 01:03:33;;;;;;;31.00;17.90;;;;;;;1.52;100.00;101235.34;5061563;28;20521;-78
2023/12/19 01:06:02;;;;;;;27.35;16.60;;;;;;;1.43;100.00;101230.88;5079389;28;20057;-81
2023/12/19 01:08:28;;;;;;;29.70;18.17;;;;;;;1.08;100.00;101197.88;5061908;28;20103;-80
2023/12/19 01:10:54;;;;;;;30.55;16.73;;;;;;;1.26;100.00;101226.22;5076687;28;20497;-78
2023/12/19 01:13:21;;;;;;;28.73;17.10;;;;;;;1.42;100.00;101247.59;5061759;28;20025;-77
2023/12/19 01:15:46;;;;;;;31.90;17.42;;;;;;;1.42;100.00;101247.59;5062169;28;20037;-77
2023/12/19 01:18:12;;;;;;;26.75;15.55;;;;;;;1.22;100.00;101241.41;5068478;28;20036;-79
2023/12/19 01:20:39;;;;;;;26.25;15.55;;;;;;;1.42;100.00;101244.97;5069477;28;20024;-79
2023/12/19 01:23:04;;;;;;;27.80;15.65;;;;;;;1.33;100.00;101251.03;5088699;28;20020;-79
2023/12/19 01:25:30;;;;;;;29.77;16.92;;;;;;;1.32;100.00;101225.69;5089022;28;20093;-83
2023/12/19 01:27:56;;;;;;;27.75;16.42;;;;;;;1.08;100.00;101229.41;5085494;28;20059;-83
2023/12/19 01:30:21;;;;;;;26.40;14.80;;;;;;;0.96;100.00;101206.81;5068738;28;20029;-80
2023/12/19 01:32:48;;;;;;;28.27;15.25;;;;;;;1.09;100.00;101215.34;5067324;28;20063;-80
2023/12/19 01:35:13;;;;;;;28.95;15.45;;;;;;;0.83;100.00;101195.66;5066702;28;20021;-81
2023/12/19 01:37:39;;;;;;;27.33;14.77;;;;;;;1.02;100.00;101189.69;5063214;28;20031;-78
2023/12/19 01:40:07;;;;;;;24.92;14.55;;;;;;;1.08;100.00;101208.41;5040929;28;20397;-79
2023/12/19 01:42:33;;;;;;;24.88;15.32;;;;;;;0.85;100.00;101191.13;5055762;28;20044;-79
2023/12/19 01:45:11;;;;;;;28.10;15.85;;;;;;;1.39;100.00;101221.59;5054047;28;20041;-77
2023/12/19 01:47:45;;;;;;;27.15;15.93;;;;;;;1.36;100.00;101225.31;5053692;28;20025;-83
2023/12/19 01:50:13;;;;;;;25.40;14.90;;;;;;;1.18;100.00;101198.78;5053454;28;20029;-78
2023/12/19 01:52:42;;;;;;;25.63;15.38;;;;;;;1.31;100.00;101213.50;5053455;28;20039;-78
2023/12/19 01:55:08;;;;;;;26.50;15.70;;;;;;;0.89;100.00;101150.50;5053397;28;20048;-81
2023/12/19 01:57:35;;;;;;;29.60;16.38;;;;;;;0.93;100.00;101191.31;5053505;28;20036;-78
2023/12/19 02:00:01;;;;;;;27.50;16.48;;;;;;;0.87;100.00;101215.47;5035042;28;20086;-78
2023/12/19 02:02:26;;;;;;;34.17;18.90;;;;;;;0.45;100.00;101153.25;5063645;28;20029;-78
2023/12/19 02:04:55;;;;;;;32.42;19.08;;;;;;;0.74;100.00;101190.22;5072953;28;20071;-77
2023/12/19 02:07:21;;;;;;;32.38;17.35;;;;;;;0.85;100.00;101207.69;5073085;28;20488;-77
2023/12/19 02:09:46;;;;;;;33.38;17.60;;;;;;;0.61;100.00;101152.81;5073300;28;20111;-77
2023/12/19 02:12:12;;;;;;;61.45;34.17;;;;;;;0.90;100.00;101194.19;5066888;28;20116;-78
2023/12/19 02:14:39;;;;;;;46.22;24.98;;;;;;;0.48;100.00;101188.91;5052536;28;20025;-78
2023/12/19 02:17:04;;;;;;;35.03;20.33;;;;;;;0.35;100.00;101213.53;5053135;28;20029;-78
2023/12/19 02:19:29;;;;;;;32.65;18.10;;;;;;;0.17;100.00;101154.69;5035002;28;20037;-79
2023/12/19 02:21:55;;;;;;;32.78;18.40;;;;;;;0.58;100.00;101205.56;5052462;28;20025;-78
2023/12/19 02:24:20;;;;;;;28.33;15.55;;;;;;;0.11;100.00;101179.59;5034779;28;20025;-80
2023/12/19 02:26:46;;;;;;;27.45;16.42;;;;;;;-0.11;100.00;101166.53;5052336;28;20028;-78
2023/12/19 02:29:12;;;;;;;34.15;17.25;;;;;;;0.28;100.00;101193.97;5046624;28;20064;-78
2023/12/19 02:31:37;;;;;;;29.20;16.20;;;;;;;0.21;100.00;101198.06;5072611;28;20024;-83
2023/12/19 02:34:02;;;;;;;28.35;15.93;;;;;;;0.09;100.00;101157.09;5056842;28;20025;-79
2023/12/19 02:36:28;;;;;;;28.23;17.40;;;;;;;0.49;100.00;101178.28;5052231;28;20032;-77
2023/12/19 02:38:53;;;;;;;31.30;17.02;;;;;;;0.49;100.00;101186.16;5052069;28;20060;-79
2023/12/19 02:41:19;;;;;;;27.75;17.23;;;;;;;0.66;100.00;101199.69;5034484;28;20068;-78
2023/12/19 02:43:44;;;;;;;31.42;18.13;;;;;;;0.26;100.00;101132.94;5052112;28;20053;-78
2023/12/19 02:46:09;;;;;;;32.35;18.13;;;;;;;0.69;100.00;101194.19;5052344;28;20066;-77
2023/12/19 02:48:35;;;;;;;31.50;17.60;;;;;;;0.46;100.00;101164.59;5034337;28;20047;-78
2023/12/19 02:51:00;;;;;;;31.40;18.80;;;;;;;0.58;100.00;101195.06;5052116;28;20184;-78
2023/12/19 02:53:27;;;;;;;33.45;18.42;;;;;;;0.55;100.00;101164.66;5052505;28;20417;-79
2023/12/19 02:55:53;;;;;;;29.02;16.23;;;;;;;0.56;100.00;101155.00;5051912;28;20029;-79
2023/12/19 02:58:18;;;;;;;29.73;17.08;;;;;;;0.99;100.00;101196.06;5048048;28;20040;-78
2023/12/19 03:00:44;;;;;;;31.73;17.48;;;;;;;0.89;100.00;101182.03;5014363;28;20025;-78
2023/12/19 03:03:09;;;;;;;27.65;16.58;;;;;;;0.89;100.00;101184.66;5032160;28;20444;-77
2023/12/19 03:05:34;;;;;;;28.48;16.90;;;;;;;0.85;100.00;101180.63;5031985;28;20460;-77
2023/12/19 03:08:00;;;;;;;32.40;17.30;;;;;;;0.18;100.00;101180.78;5034074;28;20465;-77
2023/12/19 03:10:25;;;;;;;26.77;16.70;;;;;;;-0.38;100.00;101138.13;5053787;28;20059;-78
2023/12/19 03:12:51;;;;;;;30.30;16.00;;;;;;;-0.21;100.00;101188.25;5053596;28;20021;-77
2023/12/19 03:15:16;;;;;;;31.70;18.10;;;;;;;-0.11;100.00;101162.13;5071621;28;20063;-77
2023/12/19 03:17:41;;;;;;;27.83;15.90;;;;;;;-0.04;100.00;101163.31;5053248;28;20788;-79
2023/12/19 03:20:08;;;;;;;31.50;17.00;;;;;;;-0.06;100.00;101131.16;5052893;28;20032;-78
2023/12/19 03:22:33;;;;;;;35.85;19.70;;;;;;;0.23;100.00;101180.41;5051171;28;20560;-77
2023/12/19 03:24:58;;;;;;;38.35;20.55;;;;;;;0.25;100.00;101173.25;5069084;28;20106;-77
2023/12/19 03:27:24;;;;;;;42.38;22.27;;;;;;;0.45;100.00;101173.41;5071325;28;20074;-78
2023/12/19 03:29:49;;;;;;;40.05;21.77;;;;;;;0.23;100.00;101175.16;5071500;28;20037;-79
2023/12/19 03:32:15;;;;;;;41.05;22.50;;;;;;;0.38;100.00;101173.91;5071357;28;20074;-78
2023/12/19 03:34:40;;;;;;;36.83;19.92;;;;;;;0.67;100.00;101199.56;5052729;28;20020;-77
2023/12/19 03:37:05;;;;;;;31.92;18.55;;;;;;;0.52;100.00;101164.91;5070937;28;20029;-77
2023/12/19 03:39:31;;;;;;;29.25;17.30;;;;;;;0.53;100.00;101170.97;5071275;28;20067;-79
2023/12/19 03:41:56;;;;;;;30.83;17.40;;;;;;;0.62;100.00;101180.72;5071218;28;20528;-77
2023/12/19 03:44:21;;;;;;;27.80;16.05;;;;;;;0.47;100.00;101164.47;5064180;28;20025;-78
2023/12/19 03:46:47;;;;;;;30.25;16.85;;;;;;;0.57;100.00;101177.63;5032928;28;20389;-77
2023/12/19 03:49:13;;;;;;;35.78;19.70;;;;;;;0.36;100.00;101172.38;5050948;28;20090;-80
2023/12/19 03:51:38;;;;;;;29.55;17.70;;;;;;;0.47;100.00;101160.97;5033103;28;20021;-77
2023/12/19 03:54:04;;;;;;;26.00;16.45;;;;;;;-0.10;100.00;101141.97;5050947;28;20477;-76
2023/12/19 03:56:30;;;;;;;28.63;16.77;;;;;;;-0.12;100.00;101170.97;5051108;28;20100;-78
2023/12/19 03:58:55;;;;;;;29.38;16.88;;;;;;;-0.23;100.00;101181.47;5043227;28;20427;-77
2023/12/19 04:01:23;;;;;;;38.08;22.65;;;;;;;-0.09;100.00;101157.59;5030863;28;20025;-77
2023/12/19 04:03:49;;;;;;;45.08;27.77;;;;;;;0.01;100.00;101123.59;5030855;28;20036;-79
2023/12/19 04:06:14;;;;;;;56.33;34.20;;;;;;;-0.17;100.00;101161.78;5012916;28;20053;-78
2023/12/19 04:08:39;;;;;;;52.85;31.50;;;;;;;-0.08;100.00;101161.91;5036012;28;20696;-78
2023/12/19 04:11:05;;;;;;;51.67;28.85;;;;;;;0.08;100.00;101134.41;5050675;28;20033;-77
2023/12/19 04:13:30;;;;;;;42.80;25.20;;;;;;;0.13;100.00;101158.50;5050353;28;20105;-78
2023/12/19 04:15:55;;;;;;;47.03;29.17;;;;;;;-0.11;100.00;101172.63;5049709;28;20040;-78
2023/12/19 04:18:21;;;;;;;75.03;40.63;;;;;;;0.09;100.00;101157.09;5070639;28;20029;-77
2023/12/19 04:20:46;;;;;;;94.63;49.10;;;;;;;0.05;100.00;101139.94;5070740;28;20112;-78
2023/12/19 04:23:12;;;;;;;84.80;45.05;;;;;;;0.16;100.00;101166.97;5052391;28;20101;-78
2023/12/19 04:25:37;;;;;;;50.42;29.08;;;;;;;-0.23;100.00;101100.19;5070848;28;20032;-77
2023/12/19 04:28:03;;;;;;;49.33;26.30;;;;;;;-0.08;100.00;101108.59;5070476;28;20029;-77
2023/12/19 04:30:28;;;;;;;40.35;21.70;;;;;;;0.06;100.00;101133.72;5033052;28;20037;-77
2023/12/19 04:32:54;;;;;;;35.60;17.63;;;;;;;0.31;100.00;101164.06;5032469;28;20099;-76
2023/12/19 04:35:19;;;;;;;24.25;13.93;;;;;;;-0.10;100.00;101131.50;5050406;28;20108;-79
2023/12/19 04:37:44;;;;;;;26.25;13.75;;;;;;;-0.27;100.00;101119.75;5032787;28;20654;-78
2023/12/19 04:40:11;;;;;;;26.23;13.45;;;;;;;-0.48;100.00;101102.16;5016141;28;20069;-77
2023/12/19 04:42:36;;;;;;;26.88;14.20;;;;;;;-0.15;100.00;101173.81;5030635;28;20036;-77
2023/12/19 04:45:02;;;;;;;22.70;12.90;;;;;;;-0.30;100.00;101164.56;5021978;28;20016;-79
2023/12/19 04:47:28;;;;;;;27.85;13.90;;;;;;;-0.51;100.00;101094.53;5073168;28;20500;-78
2023/12/19 04:49:54;;;;;;;24.80;12.45;;;;;;;-0.33;100.00;101136.78;5060208;28;20029;-77
2023/12/19 04:52:19;;;;;;;27.05;13.93;;;;;;;-0.15;100.00;101159.88;5054221;28;20024;-80
2023/12/19 04:54:45;;;;;;;24.83;14.55;;;;;;;-0.03;100.00;101179.88;5053741;28;20040;-78
2023/12/19 04:57:11;;;;;;;28.10;16.58;;;;;;;0.01;100.00;101181.31;5036216;28;20397;-78
2023/12/19 04:59:36;;;;;;;24.75;14.63;;;;;;;0.32;100.00;101205.88;5053917;28;20658;-79
2023/12/19 05:02:02;;;;;;;22.70;12.00;;;;;;;0.02;100.00;101176.88;5053930;28;20041;-78
2023/12/19 05:04:28;;;;;;;17.80;10.38;;;;;;;-0.05;100.00;101174.75;5053567;28;20500;-77
2023/12/19 05:06:53;;;;;;;17.80;10.38;;;;;;;-0.02;100.00;101189.41;5069120;28;20103;-78
2023/12/19 05:09:18;;;;;;;18.77;10.52;;;;;;;-0.14;100.00;101183.38;5073785;28;20032;-76
2023/12/19 05:11:44;;;;;;;18.42;9.93;;;;;;;-0.22;100.00;101175.28;5073878;28;20512;-76
2023/12/19 05:14:09;;;;;;;19.85;10.45;;;;;;;-0.18;100.00;101171.44;5055668;28;20029;-77
2023/12/19 05:16:35;;;;;;;21.17;12.02;;;;;;;-0.02;100.00;101179.75;5073584;28;20036;-77
2023/12/19 05:19:00;;;;;;;19.45;10.07;;;;;;;-0.10;100.00;101163.81;5073565;28;20093;-76
2023/12/19 05:21:26;;;;;;;22.05;11.32;;;;;;;0.12;100.00;101206.66;5073892;28;20103;-76
2023/12/19 05:23:51;;;;;;;20.60;11.80;;;;;;;0.18;100.00;101182.56;5055363;28;20028;-78
2023/12/19 05:26:16;;;;;;;57.55;28.17;;;;;;;0.18;100.00;101185.19;5066626;28;20445;-76
2023/12/19 05:28:42;;;;;;;26.48;14.45;;;;;;;-0.50;100.00;101182.66;5053403;28;20029;-79
2023/12/19 05:31:09;;;;;;;33.20;17.73;;;;;;;-0.81;100.00;101171.94;5053334;28;20362;-77
2023/12/19 05:33:35;;;;;;;76.15;33.40;;;;;;;-0.64;100.00;101214.34;5035333;28;20112;-78
2023/12/19 05:36:00;;;;;;;50.15;26.60;;;;;;;-0.86;100.00;101210.75;5034978;28;20029;-77
2023/12/19 05:38:26;;;;;;;65.75;39.38;;;;;;;-0.78;100.00;101217.19;5053118;28;20100;-77
2023/12/19 05:40:56;;;;;;;45.20;26.88;;;;;;;-0.48;100.00;101219.25;5053011;28;20374;-78
2023/12/19 05:43:22;;;;;;;45.15;25.27;;;;;;;-0.45;100.00;101201.50;5053511;28;20033;-79
2023/12/19 05:45:47;;;;;;;46.95;24.15;;;;;;;-0.55;100.00;101147.28;5053265;28;20508;-79
2023/12/19 05:48:13;;;;;;;47.53;24.52;;;;;;;-0.37;100.00;101165.97;5053493;28;20036;-76
2023/12/19 05:50:38;;;;;;;45.10;21.85;;;;;;;-0.29;100.00;101193.25;5052815;28;20052;-76
2023/12/19 05:53:03;;;;;;;45.42;20.38;;;;;;;-0.25;100.00;101206.97;5053182;28;20033;-77
2023/12/19 05:55:29;;;;;;;40.35;20.08;;;;;;;-0.27;100.00;101209.69;5052965;28;20146;-78
2023/12/19 05:57:54;;;;;;;41.30;20.35;;;;;;;-0.29;100.00;101213.41;5052513;28;20021;-76
2023/12/19 06:00:20;;;;;;;41.60;19.52;;;;;;;-0.12;100.00;101223.41;5035180;28;20036;-77
2023/12/19 06:02:49;;;;;;;48.78;20.13;;;;;;;-0.17;100.00;101196.69;5035013;28;20075;-81
2023/12/19 06:05:14;;;;;;;43.95;20.98;;;;;;;-0.15;100.00;101207.06;5034915;28;20049;-77
2023/12/19 06:07:42;;;;;;;43.28;20.23;;;;;;;0.07;100.00;101216.69;5065704;28;20498;-78
2023/12/19 06:10:08;;;;;;;;;;;;;;;0.12;100.00;101214.53;5055400;28;20028;-77
2023/12/19 06:12:34;;;;;;;30.55;16.20;;;;;;;-0.11;100.00;101184.91;5065143;28;19917;-79
2023/12/19 06:15:00;;;;;;;31.10;17.20;;;;;;;0.07;100.00;101190.47;5035135;28;21094;-77
2023/12/19 06:17:25;;;;;;;30.48;19.00;;;;;;;0.15;100.00;101214.31;5061431;28;20401;-78
2023/12/19 06:19:51;;;;;;;35.83;20.70;;;;;;;0.28;100.00;101203.66;5034937;28;20029;-79
2023/12/19 06:22:16;;;;;;;42.53;27.42;;;;;;;0.51;100.00;101220.13;5034963;28;20255;-82
2023/12/19 06:24:42;;;;;;;37.75;21.50;;;;;;;0.20;100.00;101157.03;5034873;28;20393;-79
2023/12/19 06:27:07;;;;;;;42.70;22.77;;;;;;;0.69;100.00;101213.38;5039938;28;20408;-79
2023/12/19 06:29:32;;;;;;;38.47;22.27;;;;;;;0.58;100.00;101197.69;5054436;28;20044;-78
2023/12/19 06:31:58;;;;;;;37.67;22.48;;;;;;;0.37;100.00;101200.28;5052643;28;20064;-78
2023/12/19 06:34:23;;;;;;;38.20;22.33;;;;;;;-0.04;100.00;101175.56;5052309;28;20033;-78
2023/12/19 06:36:48;;;;;;;44.42;22.75;;;;;;;0.08;100.00;101210.47;5052398;28;20081;-79
2023/12/19 06:39:15;;;;;;;37.83;22.20;;;;;;;0.32;100.00;101173.56;5052647;28;20488;-80
2023/12/19 06:41:40;;;;;;;41.70;22.27;;;;;;;0.20;100.00;101185.88;5034459;28;20025;-78
2023/12/19 06:44:05;;;;;;;43.30;25.77;;;;;;;0.01;100.00;101162.13;5052370;28;20510;-81
2023/12/19 06:46:31;;;;;;;48.28;30.23;;;;;;;-0.08;100.00;101130.44;5052460;28;20033;-79
2023/12/19 06:48:57;;;;;;;52.30;29.40;;;;;;;-0.04;100.00;101192.16;5059759;28;20101;-79
2023/12/19 06:51:23;;;;;;;44.45;25.65;;;;;;;0.24;100.00;101208.28;5054280;28;20031;-82
2023/12/19 06:53:54;;;;;;;48.03;27.17;;;;;;;0.24;100.00;101213.53;5065271;28;20448;-79
2023/12/19 06:56:20;;;;;;;44.85;25.02;;;;;;;0.28;100.00;101204.47;5034673;28;20025;-78
2023/12/19 06:58:47;;;;;;;40.85;24.77;;;;;;;0.36;100.00;101206.47;5062049;28;20032;-79
2023/12/19 07:01:14;;;;;;;55.08;32.55;;;;;;;0.46;100.00;101217.06;5051772;28;20782;-79
2023/12/19 07:03:41;;;;;;;82.07;54.42;;;;;;;0.58;100.00;101210.81;5051934;28;20025;-78
2023/12/19 07:06:07;;;;;;;103.32;52.78;;;;;;;0.56;100.00;101191.75;5051937;28;20472;-78
2023/12/19 07:08:32;;;;;;;125.72;61.42;;;;;;;1.13;100.00;101234.31;5061678;28;20477;-78
2023/12/19 07:10:58;;;;;;;99.55;50.63;;;;;;;1.66;100.00;101228.09;5052497;28;20028;-79
2023/12/19 07:13:23;;;;;;;89.25;49.65;;;;;;;1.70;100.00;101203.19;5051470;28;20463;-79
2023/12/19 07:15:48;;;;;;;72.65;39.17;;;;;;;1.85;100.00;101228.16;5051686;28;20625;-79
2023/12/19 07:18:14;;;;;;;79.95;38.75;;;;;;;1.25;100.00;101183.34;5051504;28;20029;-81
2023/12/19 07:20:39;;;;;;;102.47;42.10;;;;;;;1.39;100.00;101217.16;5051489;28;20052;-80
2023/12/19 07:23:05;;;;;;;99.13;41.92;;;;;;;1.34;100.00;101192.22;5033669;28;20421;-78
2023/12/19 07:25:30;;;;;;;67.68;31.15;;;;;;;1.71;100.00;101194.31;5033665;28;20037;-79
2023/12/19 07:27:56;;;;;;;37.53;20.58;;;;;;;1.87;100.00;101223.59;5035573;28;20032;-78
2023/12/19 07:30:21;;;;;;;25.88;15.45;;;;;;;1.87;100.00;101206.97;5071539;28;20418;-78
2023/12/19 07:32:50;;;;;;;25.63;14.30;;;;;;;2.22;100.00;101224.91;5053542;28;20028;-77
2023/12/19 07:35:19;;;;;;;22.05;14.77;;;;;;;2.05;100.00;101199.28;5071341;28;20055;-79
2023/12/19 07:37:44;;;;;;;25.50;16.17;;;;;;;2.37;100.00;101228.84;5071356;28;20032;-78
2023/12/19 07:40:11;;;;;;;34.47;18.65;;;;;;;2.30;100.00;101196.09;5052575;28;20039;-78
2023/12/19 07:42:36;;;;;;;38.70;21.65;;;;;;;2.58;100.00;101199.72;5051260;28;20036;-78
2023/12/19 07:45:02;;;;;;;38.83;21.30;;;;;;;2.75;100.00;101165.75;5051230;28;20394;-83
2023/12/19 07:47:28;;;;;;;39.60;20.55;;;;;;;2.85;100.00;101198.19;5051403;28;20126;-77
2023/12/19 07:49:53;;;;;;;38.13;21.63;;;;;;;2.88;100.00;101147.88;5051271;28;20116;-77
2023/12/19 07:52:19;;;;;;;25.13;14.85;;;;;;;3.20;100.00;101194.91;5051132;28;20163;-78
2023/12/19 07:54:44;;;;;;;35.72;20.48;;;;;;;3.12;100.00;101163.19;5050941;28;20040;-78
2023/12/19 07:57:10;;;;;;;29.10;18.33;;;;;;;3.49;100.00;101186.09;5051008;28;20401;-77
2023/12/19 07:59:35;;;;;;;26.80;16.60;;;;;;;3.45;100.00;101176.81;5033027;28;20044;-77
2023/12/19 08:02:01;;;;;;;25.00;15.25;;;;;;;3.54;100.00;101170.66;5050848;28;20036;-78
2023/12/19 08:04:26;;;;;;;25.58;15.32;;;;;;;3.79;100.00;101223.72;5032794;28;20041;-81
2023/12/19 08:06:51;;;;;;;35.45;18.23;;;;;;;3.71;100.00;101173.50;5051117;28;20028;-78
2023/12/19 08:09:17;;;;;;;28.25;16.00;;;;;;;3.78;100.00;101164.88;5057082;28;20036;-78
2023/12/19 08:11:42;;;;;;;26.55;15.55;;;;;;;4.15;100.00;101165.75;5070981;28;20024;-78
2023/12/19 08:14:08;;;;;;;21.52;14.07;;;;;;;4.14;100.00;101150.88;5070759;28;20036;-78
2023/12/19 08:16:33;;;;;;;28.92;16.20;;;;;;;4.47;100.00;101180.22;5071034;28;20039;-77
2023/12/19 08:18:59;;;;;;;22.70;13.80;;;;;;;4.82;100.00;101193.44;5070561;28;20029;-77
2023/12/19 08:21:25;;;;;;;30.48;17.08;;;;;;;4.71;100.00;101175.16;5073664;28;20479;-79
2023/12/19 08:23:51;;;;;;;24.10;14.95;;;;;;;4.71;100.00;101169.03;5074518;28;20050;-77
2023/12/19 08:26:17;;;;;;;21.10;13.43;;;;;;;4.52;100.00;101160.31;5074560;28;20024;-78
2023/12/19 08:28:43;;;;;;;19.33;12.93;;;;;;;5.08;100.00;101197.88;5074457;28;20024;-77
2023/12/19 08:31:09;;;;;;;21.73;14.30;;;;;;;5.12;100.00;101177.25;5056361;28;20115;-80
2023/12/19 08:33:35;;;;;;;25.55;15.85;;;;;;;5.48;100.00;101166.56;5074250;28;20028;-77
2023/12/19 08:36:00;;;;;;;19.02;13.57;;;;;;;5.54;100.00;101177.34;5074253;28;20039;-77
2023/12/19 08:38:25;;;;;;;22.25;12.52;;;;;;;5.88;100.00;101189.69;5066156;28;20049;-77
2023/12/19 08:40:51;;;;;;;22.30;13.73;;;;;;;6.03;100.00;101193.41;5052085;28;20049;-76
2023/12/19 08:43:19;;;;;;;19.73;11.85;;;;;;;6.15;98.96;101193.09;5053317;28;20483;-77
2023/12/19 08:45:45;;;;;;;34.33;14.68;;;;;;;6.38;99.38;101183.56;5054099;28;20028;-77
2023/12/19 08:48:12;;;;;;;19.25;12.82;;;;;;;6.27;97.35;101162.66;5053768;28;20455;-77
2023/12/19 08:50:37;;;;;;;24.25;15.82;;;;;;;6.67;95.76;101190.19;5067685;28;20132;-80
2023/12/19 08:53:03;;;;;;;21.83;13.73;;;;;;;6.77;94.59;101185.56;5073691;28;20112;-77
2023/12/19 08:55:30;;;;;;;27.30;17.42;;;;;;;6.87;90.36;101161.53;5055726;28;20048;-76
2023/12/19 08:57:56;;;;;;;31.10;19.92;;;;;;;7.16;90.03;101163.63;5073711;28;20020;-80
2023/12/19 09:00:22;;;;;;;36.67;22.30;;;;;;;7.04;87.40;101128.66;5069032;28;20056;-77
2023/12/19 09:02:48;;;;;;;105.80;59.60;;;;;;;7.40;86.84;101159.25;5073684;28;20050;-77
2023/12/19 09:05:18;;;;;;;359.30;137.15;;;;;;;7.59;87.43;101158.03;5055931;28;20569;-77
2023/12/19 09:07:48;;;;;;;225.20;87.57;;;;;;;7.70;86.62;101132.91;5073021;28;20025;-76
2023/12/19 09:10:15;;;;;;;76.78;38.10;;;;;;;7.44;85.25;101102.19;5069441;28;20029;-77
2023/12/19 09:12:41;;;;;;;56.30;33.53;;;;;;;8.14;84.13;101157.06;5053584;28;20021;-78
2023/12/19 09:15:08;;;;;;;44.03;27.52;;;;;;;8.14;82.28;101137.66;5053965;28;20031;-77
2023/12/19 09:17:34;;;;;;;29.48;18.88;;;;;;;8.35;81.50;101127.19;5036171;28;20131;-77
2023/12/19 09:20:04;;;;;;;22.77;14.85;;;;;;;8.15;81.03;101132.16;5036117;28;20033;-79
2023/12/19 09:22:30;;;;;;;20.80;13.88;;;;;;;8.38;80.85;101121.53;5053782;28;20096;-78
2023/12/19 09:24:55;;;;;;;22.67;14.52;;;;;;;8.50;79.46;101118.44;5035825;28;20115;-79
2023/12/19 09:27:21;;;;;;;25.00;15.82;;;;;;;8.59;78.66;101122.72;5053154;28;20464;-77
2023/12/19 09:29:46;;;;;;;23.48;15.38;;;;;;;8.60;80.83;101114.56;5035476;28;20120;-77
2023/12/19 09:32:12;;;;;;;20.77;14.13;;;;;;;9.02;78.70;101117.63;5051722;28;20071;-77
2023/12/19 09:34:38;;;;;;;22.65;13.93;;;;;;;8.89;79.89;101109.44;5052735;28;20456;-76
2023/12/19 09:37:05;;;;;;;22.55;13.93;;;;;;;9.36;76.80;101129.56;5052361;28;20028;-77
2023/12/19 09:39:30;;;;;;;26.55;16.50;;;;;;;9.03;76.77;101088.19;5052133;28;20083;-78
2023/12/19 09:41:56;;;;;;;16.27;11.77;;;;;;;9.39;73.56;101097.25;5051638;28;20028;-77
2023/12/19 09:44:23;;;;;;;17.45;11.90;;;;;;;9.98;74.54;101126.41;5034206;28;20037;-77
2023/12/19 09:46:51;;;;;;;16.70;9.90;;;;;;;9.53;70.48;101091.06;5052440;28;20478;-76
2023/12/19 09:49:22;;;;;;;13.98;9.95;;;;;;;9.81;70.93;101117.00;5051682;28;20107;-76
2023/12/19 09:51:51;;;;;;;19.33;11.38;;;;;;;10.12;75.34;101102.56;5062222;28;20024;-77
2023/12/19 09:54:21;;;;;;;18.25;13.07;;;;;;;9.65;77.79;101070.94;5072117;28;20035;-76
2023/12/19 09:56:52;;;;;;;16.85;12.02;;;;;;;10.09;74.87;101093.09;5071252;28;20020;-75
2023/12/19 09:59:19;;;;;;;16.83;11.48;;;;;;;10.09;70.78;101094.94;5070674;28;20509;-78
2023/12/19 10:01:45;;;;;;;17.05;11.13;;;;;;;10.12;73.10;101062.59;5042165;28;20032;-76
2023/12/19 10:04:13;;;;;;;18.30;11.43;;;;;;;10.16;72.70;101045.19;5071930;28;20071;-76
2023/12/19 10:06:54;;;;;;;18.83;11.75;;;;;;;10.02;77.49;101077.03;5072540;28;20024;-76
2023/12/19 10:09:21;;;;;;;18.60;12.38;;;;;;;9.82;78.94;101052.03;5071540;28;20029;-78
2023/12/19 10:11:48;;;;;;;16.10;11.75;;;;;;;9.97;77.77;101073.28;5052128;28;20099;-77
2023/12/19 10:14:14;;;;;;;20.30;14.02;;;;;;;10.23;78.89;101062.06;5052240;28;20039;-77
2023/12/19 10:16:43;;;;;;;20.02;13.57;;;;;;;10.29;79.56;101044.47;5051968;28;20033;-81
2023/12/19 10:19:13;;;;;;;24.63;13.52;;;;;;;10.54;75.95;101060.91;5052181;28;20037;-77
2023/12/19 10:21:40;;;;;;;17.85;11.90;;;;;;;10.05;78.05;101050.03;5072362;28;20029;-78
2023/12/19 10:24:09;;;;;;;18.83;12.95;;;;;;;9.99;77.72;101010.81;5054164;28;20040;-76
2023/12/19 10:26:34;;;;;;;21.00;11.77;;;;;;;10.44;75.79;101027.41;5071620;28;20591;-77
2023/12/19 10:29:00;;;;;;;18.42;12.52;;;;;;;10.66;75.92;101008.66;5072088;28;20089;-77
2023/12/19 10:31:25;;;;;;;16.88;12.27;;;;;;;10.79;70.84;101002.59;5053687;28;20028;-77
2023/12/19 10:33:55;;;;;;;18.10;12.05;;;;;;;11.35;68.10;101025.63;5051499;28;20101;-78
2023/12/19 10:36:28;;;;;;;20.90;11.95;;;;;;;11.14;68.39;101022.06;5051368;28;20021;-77
2023/12/19 10:38:55;;;;;;;17.00;11.75;;;;;;;11.76;63.50;101024.69;5051532;28;20025;-77
2023/12/19 10:41:31;;;;;;;18.33;11.45;;;;;;;11.63;65.98;101017.47;5067299;28;20532;-78
2023/12/19 10:43:58;;;;;;;18.27;11.88;;;;;;;11.99;65.38;101019.84;5050563;28;20025;-79
2023/12/19 10:46:32;;;;;;;17.15;11.40;;;;;;;12.04;61.02;101011.19;5051760;28;20056;-77
2023/12/19 10:49:02;;;;;;;18.05;12.05;;;;;;;12.34;62.97;101033.00;5051221;28;20032;-78
2023/12/19 10:51:41;;;;;;;20.17;13.68;;;;;;;13.00;62.00;101015.16;5051174;28;20036;-77
2023/12/19 10:54:08;;;;;;;18.23;11.60;;;;;;;12.79;60.89;101022.44;5070515;28;20064;-78
2023/12/19 10:56:41;;;;;;;15.05;11.35;;;;;;;13.15;59.20;101017.56;5071185;28;20111;-78
2023/12/19 10:59:09;;;;;;;19.27;12.85;;;;;;;13.68;58.45;101005.78;5071252;28;20024;-78
2023/12/19 11:01:39;;;;;;;;;;;;;;;13.94;55.80;101010.94;5071817;28;20515;-79
2023/12/19 11:04:22;;;;;;;20.45;14.40;;;;;;;13.27;58.93;100963.09;5070446;28;19916;-77